Date,TemperatureHighF,TemperatureAvgF,TemperatureLowF,DewpointHighF,DewpointAvgF,DewpointLowF,HumidityHigh,HumidityAvg,HumidityLow,PressureMaxIn,PressureMinIn,WindSpeedMaxMPH,WindSpeedAvgMPH,GustSpeedMaxMPH,PrecipitationSumIn
2012-12-1,68,46,34,46,39,33,95,78,42,30.09,29.97,5,1,8,0.00
2012-12-2,68,49,34,50,42,33,97,81,46,30.04,29.91,11,2,15,0.00
2012-12-3,73,57,48,55,49,45,95,77,43,30.02,29.90,8,1,12,0.00
2012-12-4,69,54,41,54,48,40,100,82,52,29.99,29.85,8,1,11,0.00
2012-12-5,64,51,34,55,42,30,100,74,32,29.99,29.84,7,2,11,0.11
2012-12-6,53,44,34,45,38,30,91,80,54,29.92,29.81,5,2,7,0.02
2012-12-7,68,51,41,51,46,40,97,83,54,29.81,27.52,4,1,6,0.01
2012-12-8,70,55,47,56,50,46,97,86,59,29.74,29.65,6,1,9,0.00
2012-12-9,73,59,49,59,54,47,100,84,51,29.78,29.61,7,2,9,0.08
2012-12-10,59,54,43,59,54,41,100,97,91,29.61,29.38,8,2,12,0.94
2012-12-11,43,39,32,42,34,29,97,83,67,29.91,29.59,8,3,11,0.01
2012-12-12,45,36,31,34,30,28,93,82,59,30.02,29.90,6,2,9,0.00
2012-12-13,58,39,29,37,31,27,96,77,35,30.08,29.98,5,1,8,0.00
2012-12-14,60,38,27,41,32,25,96,80,38,30.10,29.92,4,1,6,0.00
2012-12-15,61,44,35,41,36,31,89,75,35,29.93,29.68,6,1,8,0.00
2012-12-16,54,49,45,54,48,41,100,97,85,29.74,29.53,8,2,15,0.32
2012-12-17,53,49,46,53,49,45,100,99,89,29.55,29.34,11,2,19,0.09
2012-12-18,53,45,32,48,39,30,100,80,50,29.66,29.39,14,4,19,0.02
2012-12-19,60,41,28,44,36,28,100,83,51,29.81,29.65,6,1,9,0.00
2012-12-20,57,46,36,50,41,30,100,84,63,29.77,29.26,29,8,36,0.56
2012-12-21,37,34,31,33,26,20,90,74,55,29.76,29.41,17,11,24,0.01
2012-12-22,42,32,24,23,20,18,86,62,41,29.98,29.76,16,5,19,0.00
2012-12-23,52,35,20,41,28,18,96,78,35,30.50,29.71,10,2,17,0.20
2012-12-24,47,44,41,47,44,41,100,99,96,29.72,29.53,5,1,8,0.32
2012-12-25,52,46,43,47,44,42,100,92,77,29.79,29.60,8,2,11,0.11
2012-12-26,52,44,34,46,40,29,96,88,67,29.61,29.16,20,8,28,0.58
2012-12-27,34,33,32,30,28,27,89,82,77,29.83,29.58,11,5,17,0.00
2012-12-28,42,37,32,35,31,27,85,78,69,29.98,29.67,9,3,14,0.00
2012-12-29,43,38,32,41,34,22,97,84,64,30.17,29.70,14,6,20,0.19
2012-12-30,40,31,25,24,21,18,86,68,49,30.45,30.17,13,4,18,0.00
2012-12-31,38,32,24,31,26,21,92,81,68,30.38,30.13,4,1,5,0.00